createdAt,value
2022-08-08T00:00:52.965Z,100719.06
2022-08-08T00:03:47.410Z,100721.81
2022-08-08T00:07:25.633Z,100713.72
2022-08-08T00:10:46.358Z,100700.28
2022-08-08T00:14:16.922Z,100692.19
2022-08-08T00:17:58.656Z,100678.44
2022-08-08T00:21:07.866Z,100689.69
2022-08-08T00:24:18.765Z,100683.47
2022-08-08T00:27:34.795Z,100685.34
2022-08-08T00:30:45.172Z,100688.84
2022-08-08T00:34:50.767Z,100692.97
2022-08-08T00:38:02.815Z,100680.84
2022-08-08T00:41:45.223Z,100681.78
2022-08-08T00:45:48.162Z,100672.56
2022-08-08T00:49:03.558Z,100669.31
2022-08-08T00:52:51.650Z,100669.38
2022-08-08T00:56:12.959Z,100667.44
2022-08-08T00:59:53.747Z,100673.50
2022-08-08T01:03:57.271Z,100669.97
2022-08-08T01:06:51.788Z,100669.97
2022-08-08T01:10:24.812Z,100670.06
2022-08-08T01:13:53.024Z,100678.47
2022-08-08T01:17:20.352Z,100666.88
2022-08-08T01:20:56.327Z,100671.75
2022-08-08T01:24:19.016Z,100672.00
2022-08-08T01:27:59.422Z,100664.34
2022-08-08T01:32:15.208Z,100658.59
2022-08-08T01:35:29.723Z,100666.88
2022-08-08T01:38:46.295Z,100661.28
2022-08-08T01:41:58.002Z,100660.63
2022-08-08T01:45:27.463Z,100662.72
2022-08-08T01:48:40.077Z,100657.63
2022-08-08T01:53:15.054Z,100658.16
2022-08-08T01:56:30.642Z,100651.81
2022-08-08T02:00:02.244Z,100654.25
2022-08-08T02:03:57.744Z,100644.53
2022-08-08T02:07:11.015Z,100653.31
2022-08-08T02:10:44.647Z,100649.75
2022-08-08T02:14:08.411Z,100644.72
2022-08-08T02:17:22.440Z,100656.66
2022-08-08T02:21:00.891Z,100658.41
2022-08-08T02:24:07.922Z,100662.03
2022-08-08T02:27:18.763Z,100667.87
2022-08-08T02:30:29.556Z,100672.72
2022-08-08T02:34:08.721Z,100673.75
2022-08-08T02:37:51.215Z,100676.09
2022-08-08T02:42:04.130Z,100667.81
2022-08-08T02:45:18.725Z,100667.94
2022-08-08T02:48:32.635Z,100677.75
2022-08-08T02:52:11.499Z,100673.44
2022-08-08T02:56:26.952Z,100683.34
2022-08-08T03:00:01.603Z,100683.88
2022-08-08T03:05:04.906Z,100693.88
2022-08-08T03:07:58.393Z,100685.63
2022-08-08T03:12:01.498Z,100678.31
2022-08-08T03:15:58.629Z,100690.81
2022-08-08T03:18:54.239Z,100697.25
2022-08-08T03:21:59.879Z,100714.22
2022-08-08T03:25:14.604Z,100708.91
2022-08-08T03:28:26.457Z,100706.12
2022-08-08T03:32:06.721Z,100714.41
2022-08-08T03:35:10.382Z,100709.47
2022-08-08T03:38:58.562Z,100696.34
2022-08-08T03:42:12.391Z,100703.47
2022-08-08T03:45:00.093Z,100703.62
2022-08-08T03:48:09.308Z,100708.56
2022-08-08T03:51:35.439Z,100702.41
2022-08-08T03:55:01.499Z,100698.34
2022-08-08T03:58:34.700Z,100696.19
2022-08-08T04:02:22.882Z,100693.88
2022-08-08T04:05:04.564Z,100694.81
2022-08-08T04:08:33.346Z,100696.25
2022-08-08T04:11:57.864Z,100691.88
2022-08-08T04:15:06.483Z,100694.34
2022-08-08T04:18:16.563Z,100701.44
2022-08-08T04:21:23.301Z,100708.16
2022-08-08T04:24:29.633Z,100710.56
2022-08-08T04:28:01.615Z,100719.75
2022-08-08T04:30:57.689Z,100718.00
2022-08-08T04:34:00.296Z,100717.88
2022-08-08T04:37:03.896Z,100727.28
2022-08-08T04:40:12.321Z,100723.44
2022-08-08T04:43:18.221Z,100724.06
2022-08-08T04:46:25.195Z,100727.16
2022-08-08T04:50:00.391Z,100730.06
2022-08-08T04:53:00.873Z,100742.75
2022-08-08T04:56:07.770Z,100736.88
2022-08-08T04:59:10.745Z,100743.28
2022-08-08T05:02:13.836Z,100742.09
2022-08-08T05:05:20.331Z,100736.88
2022-08-08T05:08:31.107Z,100740.91
2022-08-08T05:11:39.050Z,100745.19
2022-08-08T05:14:42.597Z,100749.06
2022-08-08T05:17:54.146Z,100738.66
2022-08-08T05:20:58.915Z,100732.91
2022-08-08T05:24:04.324Z,100739.50
2022-08-08T05:27:11.311Z,100733.44
2022-08-08T05:30:13.540Z,100736.00
2022-08-08T05:33:16.932Z,100747.47
2022-08-08T05:36:28.241Z,100745.37
2022-08-08T05:39:34.969Z,100745.53
2022-08-08T05:42:43.674Z,100753.50
2022-08-08T05:45:54.955Z,100750.13
2022-08-08T05:48:58.706Z,100749.59
2022-08-08T05:52:03.441Z,100747.50
2022-08-08T05:55:14.303Z,100761.06
2022-08-08T05:58:19.991Z,100749.91
2022-08-08T06:01:51.751Z,100733.59
2022-08-08T06:04:56.115Z,100740.56
2022-08-08T06:08:02.679Z,100747.19
2022-08-08T06:11:13.325Z,100753.28
2022-08-08T06:14:20.366Z,100742.19
2022-08-08T06:17:32.234Z,100751.44
2022-08-08T06:20:56.264Z,100743.66
2022-08-08T06:24:05.157Z,100743.59
2022-08-08T06:27:22.680Z,100748.72
2022-08-08T06:30:28.535Z,100759.69
2022-08-08T06:34:27.698Z,100767.16
2022-08-08T06:37:24.960Z,100761.97
2022-08-08T06:40:32.061Z,100759.53
2022-08-08T06:43:37.273Z,100758.63
2022-08-08T06:46:39.923Z,100763.72
2022-08-08T06:49:55.144Z,100761.56
2022-08-08T06:53:09.811Z,100757.56
2022-08-08T06:56:23.105Z,100770.69
2022-08-08T06:59:27.154Z,100773.91
2022-08-08T07:02:45.388Z,100773.41
2022-08-08T07:06:01.969Z,100762.75
2022-08-08T07:09:17.722Z,100770.50
2022-08-08T07:12:37.671Z,100773.84
2022-08-08T07:16:06.323Z,100766.69
2022-08-08T07:19:30.618Z,100760.50
2022-08-08T07:22:37.018Z,100759.56
2022-08-08T07:25:44.118Z,100761.19
2022-08-08T07:28:58.731Z,100759.72
2022-08-08T07:32:10.085Z,100762.22
2022-08-08T07:35:14.055Z,100768.75
2022-08-08T07:38:20.902Z,100776.19
2022-08-08T07:41:30.086Z,100773.88
2022-08-08T07:44:52.797Z,100777.00
2022-08-08T07:47:58.431Z,100770.16
2022-08-08T07:51:04.283Z,100773.94
2022-08-08T07:54:26.982Z,100775.22
2022-08-08T07:57:54.924Z,100784.16
2022-08-08T08:01:11.427Z,100789.47
2022-08-08T08:04:16.488Z,100795.12
2022-08-08T08:07:26.804Z,100796.72
2022-08-08T08:10:38.372Z,100791.00
2022-08-08T08:14:07.817Z,100788.03
2022-08-08T08:17:18.394Z,100788.91
2022-08-08T08:20:21.893Z,100787.44
2022-08-08T08:23:41.118Z,100788.56
2022-08-08T08:26:46.791Z,100794.97
2022-08-08T08:29:55.704Z,100789.59
2022-08-08T08:32:59.993Z,100787.53
2022-08-08T08:36:20.418Z,100799.66
2022-08-08T08:39:23.995Z,100798.53
2022-08-08T08:42:29.364Z,100798.12
2022-08-08T08:45:38.408Z,100804.81
2022-08-08T08:48:49.182Z,100811.22
2022-08-08T08:51:54.025Z,100814.62
2022-08-08T08:54:59.875Z,100806.87
2022-08-08T08:58:05.723Z,100809.94
2022-08-08T09:01:17.484Z,100802.72
2022-08-08T09:04:32.176Z,100809.47
2022-08-08T09:07:52.154Z,100816.31
2022-08-08T09:11:09.647Z,100819.16
2022-08-08T09:14:13.051Z,100815.22
2022-08-08T09:17:19.165Z,100815.53
2022-08-08T09:22:01.644Z,100817.38
2022-08-08T09:23:48.414Z,100820.28
2022-08-08T09:26:56.714Z,100819.22
2022-08-08T09:30:04.263Z,100827.59
2022-08-08T09:34:14.794Z,100825.84
2022-08-08T09:36:39.184Z,100837.00
2022-08-08T09:39:59.704Z,100829.28
2022-08-08T09:43:24.190Z,100822.66
2022-08-08T09:46:45.185Z,100820.34
2022-08-08T09:50:03.958Z,100817.63
2022-08-08T09:53:31.851Z,100808.03
2022-08-08T09:56:41.446Z,100813.03
2022-08-08T10:00:27.597Z,100806.56
2022-08-08T10:03:19.875Z,100803.19
2022-08-08T10:06:29.452Z,100793.16
2022-08-08T10:09:42.297Z,100796.31
2022-08-08T10:12:57.665Z,100799.56
2022-08-08T10:16:09.176Z,100796.03
2022-08-08T10:19:11.704Z,100814.22
2022-08-08T10:22:17.538Z,100803.41
2022-08-08T10:25:22.063Z,100816.81
2022-08-08T10:28:25.960Z,100808.44
2022-08-08T10:31:51.775Z,100813.19
2022-08-08T10:35:01.354Z,100814.03
2022-08-08T10:38:07.965Z,100795.63
2022-08-08T10:41:16.890Z,100801.06
2022-08-08T10:44:35.817Z,100793.59
2022-08-08T10:47:43.128Z,100784.78
2022-08-08T10:50:46.635Z,100776.75
2022-08-08T10:53:57.971Z,100778.78
2022-08-08T10:57:05.435Z,100784.41
2022-08-08T11:00:10.867Z,100788.53
2022-08-08T11:03:16.457Z,100793.34
2022-08-08T11:06:18.843Z,100785.41
2022-08-08T11:09:22.880Z,100779.50
2022-08-08T11:12:25.207Z,100782.66
2022-08-08T11:15:31.280Z,100780.91
2022-08-08T11:18:36.065Z,100778.75
2022-08-08T11:21:55.715Z,100776.31
2022-08-08T11:25:01.282Z,100788.44
2022-08-08T11:28:04.199Z,100782.28
2022-08-08T11:31:09.457Z,100785.00
2022-08-08T11:34:23.477Z,100785.50
2022-08-08T11:38:34.677Z,100785.56
2022-08-08T11:40:56.996Z,100774.81
2022-08-08T11:44:00.471Z,100786.06
2022-08-08T11:47:03.594Z,100788.91
2022-08-08T11:50:23.537Z,100776.59
2022-08-08T11:53:26.952Z,100785.19
2022-08-08T11:56:34.594Z,100782.44
2022-08-08T11:59:58.763Z,100784.75
2022-08-08T12:03:20.861Z,100787.81
2022-08-08T12:06:24.305Z,100786.69
2022-08-08T12:09:29.123Z,100770.91
2022-08-08T12:13:05.407Z,100769.84
2022-08-08T12:16:12.983Z,100771.25
2022-08-08T12:19:21.982Z,100780.91
2022-08-08T12:22:58.846Z,100785.81
2022-08-08T12:26:10.318Z,100781.28
2022-08-08T12:29:40.068Z,100795.53
2022-08-08T12:32:48.064Z,100801.59
2022-08-08T12:35:52.847Z,100795.78
2022-08-08T12:38:55.879Z,100793.47
2022-08-08T12:42:01.786Z,100790.38
2022-08-08T12:45:53.977Z,100791.03
2022-08-08T12:48:37.485Z,100793.34
2022-08-08T12:51:49.775Z,100798.12
2022-08-08T12:55:13.593Z,100797.72
2022-08-08T12:58:19.691Z,100806.28
2022-08-08T13:01:38.252Z,100798.97
2022-08-08T13:04:51.079Z,100816.03
2022-08-08T13:08:02.888Z,100815.88
2022-08-08T13:11:17.151Z,100826.69
2022-08-08T13:14:20.547Z,100826.91
2022-08-08T13:18:07.873Z,100822.44
2022-08-08T13:20:51.035Z,100812.50
2022-08-08T13:23:56.038Z,100813.78
2022-08-08T13:27:03.701Z,100816.28
2022-08-08T13:30:06.727Z,100830.28
2022-08-08T13:33:08.877Z,100814.97
2022-08-08T13:36:11.239Z,100823.84
2022-08-08T13:39:17.588Z,100820.72
2022-08-08T13:42:22.612Z,100824.50
2022-08-08T13:45:27.394Z,100834.34
2022-08-08T13:48:43.177Z,100817.47
2022-08-08T13:51:58.690Z,100814.44
2022-08-08T13:55:06.189Z,100809.84
2022-08-08T13:58:19.925Z,100819.31
2022-08-08T14:01:23.418Z,100804.00
2022-08-08T14:05:04.842Z,100808.44
2022-08-08T14:08:16.760Z,100804.75
2022-08-08T14:11:33.931Z,100800.91
2022-08-08T14:14:42.806Z,100803.13
2022-08-08T14:18:35.090Z,100800.84
2022-08-08T14:21:20.977Z,100803.00
2022-08-08T14:24:34.635Z,100807.38
2022-08-08T14:27:40.596Z,100798.56
2022-08-08T14:30:47.633Z,100798.84
2022-08-08T14:33:57.417Z,100799.06
2022-08-08T14:37:06.375Z,100785.47
2022-08-08T14:40:18.275Z,100792.16
2022-08-08T14:44:02.602Z,100784.59
2022-08-08T14:46:57.910Z,100776.41
2022-08-08T14:50:10.237Z,100786.66
2022-08-08T14:53:17.220Z,100782.13
2022-08-08T14:56:19.699Z,100788.56
2022-08-08T14:59:43.929Z,100794.06
2022-08-08T15:02:59.225Z,100787.06
2022-08-08T15:06:16.460Z,100776.56
2022-08-08T15:09:19.465Z,100796.44
2022-08-08T15:12:27.626Z,100799.53
2022-08-08T15:16:02.677Z,100791.28
2022-08-08T15:18:52.937Z,100789.81
2022-08-08T15:21:55.499Z,100785.06
2022-08-08T15:25:00.021Z,100785.22
2022-08-08T15:28:33.353Z,100788.84
2022-08-08T15:31:55.983Z,100786.78
2022-08-08T15:34:49.130Z,100795.41
2022-08-08T15:37:51.991Z,100798.06
2022-08-08T15:40:55.644Z,100799.16
2022-08-08T15:44:01.031Z,100800.44
2022-08-08T15:47:16.047Z,100793.66
2022-08-08T15:50:21.203Z,100796.19
2022-08-08T15:53:27.549Z,100794.56
2022-08-08T15:56:35.493Z,100793.91
2022-08-08T16:00:18.261Z,100791.28
2022-08-08T16:03:01.427Z,100785.00
2022-08-08T16:06:06.188Z,100784.84
2022-08-08T16:13:07.815Z,100786.50
2022-08-08T16:13:21.206Z,100789.13
2022-08-08T16:16:12.851Z,100780.56
2022-08-08T16:19:23.509Z,100787.53
2022-08-08T16:22:30.339Z,100774.31
2022-08-08T16:25:46.374Z,100775.16
2022-08-08T16:28:56.025Z,100778.16
2022-08-08T16:31:58.470Z,100780.03
2022-08-08T16:35:03.438Z,100784.22
2022-08-08T16:38:10.935Z,100779.03
2022-08-08T16:41:20.396Z,100786.97
2022-08-08T16:44:27.951Z,100784.00
2022-08-08T16:47:42.310Z,100779.13
2022-08-08T16:50:45.122Z,100781.28
2022-08-08T16:55:03.837Z,100777.84
2022-08-08T16:58:10.654Z,100786.69
2022-08-08T17:00:34.450Z,100792.00
2022-08-08T17:03:57.926Z,100803.56
2022-08-08T17:06:59.001Z,100796.13
2022-08-08T17:10:01.925Z,100796.78
2022-08-08T17:13:07.434Z,100795.75
2022-08-08T17:16:15.209Z,100797.50
2022-08-08T17:19:17.682Z,100793.56
2022-08-08T17:22:21.009Z,100804.47
2022-08-08T17:25:47.710Z,100803.41
2022-08-08T17:28:55.110Z,100806.31
2022-08-08T17:31:59.303Z,100819.97
2022-08-08T17:35:56.134Z,100829.75
2022-08-08T17:38:25.516Z,100825.91
2022-08-08T17:41:38.900Z,100830.41
2022-08-08T17:44:45.859Z,100826.41
2022-08-08T17:47:50.841Z,100825.91
2022-08-08T17:50:54.005Z,100835.09
2022-08-08T17:53:57.729Z,100821.91
2022-08-08T17:57:01.104Z,100834.25
2022-08-08T18:00:13.287Z,100829.63
2022-08-08T18:03:22.933Z,100836.63
2022-08-08T18:06:31.285Z,100827.41
2022-08-08T18:09:37.925Z,100823.19
2022-08-08T18:12:40.380Z,100824.22
2022-08-08T18:15:45.611Z,100828.34
2022-08-08T18:19:02.603Z,100835.25
2022-08-08T18:22:05.634Z,100838.97
2022-08-08T18:25:28.572Z,100836.31
2022-08-08T18:28:53.844Z,100848.16
2022-08-08T18:31:58.963Z,100850.66
2022-08-08T18:35:01.525Z,100854.22
2022-08-08T18:38:16.919Z,100850.69
2022-08-08T18:41:51.479Z,100846.16
2022-08-08T18:44:55.939Z,100847.84
2022-08-08T18:47:59.994Z,100864.69
2022-08-08T18:51:02.623Z,100855.41
2022-08-08T18:54:21.843Z,100867.72
2022-08-08T18:57:25.150Z,100860.13
2022-08-08T19:00:29.211Z,100866.19
2022-08-08T19:04:09.990Z,100870.72
2022-08-08T19:06:54.658Z,100873.44
2022-08-08T19:10:14.636Z,100875.09
2022-08-08T19:13:21.532Z,100878.81
2022-08-08T19:16:31.817Z,100879.66
2022-08-08T19:19:36.233Z,100878.16
2022-08-08T19:22:38.413Z,100872.41
2022-08-08T19:26:19.834Z,100884.22
2022-08-08T19:29:06.956Z,100883.53
2022-08-08T19:32:12.937Z,100884.22
2022-08-08T19:35:25.684Z,100884.37
2022-08-08T19:38:45.192Z,100890.59
2022-08-08T19:41:47.295Z,100885.22
2022-08-08T19:44:51.263Z,100880.34
2022-08-08T19:47:55.339Z,100875.13
2022-08-08T19:51:01.913Z,100873.09
2022-08-08T19:54:05.115Z,100876.63
2022-08-08T19:57:09.246Z,100877.13
2022-08-08T20:00:30.730Z,100872.41
2022-08-08T20:04:01.011Z,100882.19
2022-08-08T20:06:57.823Z,100876.12
2022-08-08T20:10:09.384Z,100870.69
2022-08-08T20:14:13.200Z,100864.00
2022-08-08T20:16:38.950Z,100859.91
2022-08-08T20:19:43.562Z,100861.47
2022-08-08T20:22:46.771Z,100867.37
2022-08-08T20:25:54.889Z,100858.94
2022-08-08T20:28:59.821Z,100864.00
2022-08-08T20:32:09.974Z,100869.22
2022-08-08T20:35:16.010Z,100858.28
2022-08-08T20:38:31.948Z,100859.78
2022-08-08T20:41:35.560Z,100863.66
2022-08-08T20:44:43.318Z,100875.09
2022-08-08T20:47:48.694Z,100878.47
2022-08-08T20:51:00.157Z,100873.75
2022-08-08T20:54:13.911Z,100877.81
2022-08-08T20:57:20.993Z,100881.34
2022-08-08T21:00:24.388Z,100879.50
2022-08-08T21:03:29.904Z,100882.34
2022-08-08T21:06:53.188Z,100867.72
2022-08-08T21:10:08.084Z,100873.25
2022-08-08T21:13:15.407Z,100867.19
2022-08-08T21:16:20.602Z,100870.06
2022-08-08T21:19:43.990Z,100874.78
2022-08-08T21:22:48.663Z,100882.69
2022-08-08T21:25:53.358Z,100881.19
2022-08-08T21:29:00.670Z,100890.78
2022-08-08T21:32:07.647Z,100886.56
2022-08-08T21:36:16.673Z,100896.69
2022-08-08T21:38:38.994Z,100895.97
2022-08-08T21:41:51.014Z,100901.53
2022-08-08T21:44:58.185Z,100909.59
2022-08-08T21:48:11.288Z,100908.59
2022-08-08T21:54:18.641Z,100903.22
2022-08-08T21:55:02.005Z,100910.16
2022-08-08T21:58:09.503Z,100917.88
2022-08-08T22:01:27.773Z,100917.53
2022-08-08T22:04:38.245Z,100927.81
2022-08-08T22:07:41.479Z,100926.66
2022-08-08T22:10:45.317Z,100923.94
2022-08-08T22:13:51.543Z,100922.25
2022-08-08T22:16:54.702Z,100921.75
2022-08-08T22:20:13.120Z,100919.06
2022-08-08T22:23:19.608Z,100914.28
2022-08-08T22:26:28.711Z,100914.81
2022-08-08T22:29:59.334Z,100904.84
2022-08-08T22:32:55.734Z,100914.63
2022-08-08T22:36:04.117Z,100918.81
2022-08-08T22:39:19.086Z,100917.12
2022-08-08T22:42:27.190Z,100911.91
2022-08-08T22:45:33.645Z,100913.03
2022-08-08T22:48:37.743Z,100917.22
2022-08-08T22:51:42.763Z,100914.53
2022-08-08T22:54:53.879Z,100916.75
2022-08-08T22:57:58.565Z,100928.34
2022-08-08T23:01:30.182Z,100923.81
2022-08-08T23:04:32.500Z,100915.53
2022-08-08T23:07:51.276Z,100911.03
2022-08-08T23:11:01.045Z,100900.97
2022-08-08T23:14:11.579Z,100905.19
2022-08-08T23:17:16.775Z,100906.31
2022-08-08T23:20:19.770Z,100901.28
2022-08-08T23:23:22.082Z,100907.00
2022-08-08T23:26:25.413Z,100914.38
2022-08-08T23:29:31.176Z,100914.50
2022-08-08T23:32:34.358Z,100902.25
2022-08-08T23:35:59.011Z,100904.28
2022-08-08T23:38:59.061Z,100914.53
2022-08-08T23:42:02.802Z,100911.16
2022-08-08T23:45:06.138Z,100909.59
2022-08-08T23:49:03.603Z,100937.34
2022-08-08T23:51:42.630Z,100936.50
2022-08-08T23:55:07.412Z,100943.50
2022-08-08T23:58:37.683Z,100939.63
